Time;durP1;ratioP1;P1;durP2;ratioP2;P2;SDS_P1;SDS_P2;PMS_P1;PMS_P2;Temp;Humidity;BMP_temperature;BMP_pressure;BME280_temperature;BME280_humidity;BME280_pressure;Samples;Min_cycle;Max_cycle;Signal;HPM_P1;HPM_P2
2023/07/17 00:00:54;;;;;;;4.73;3.00;;;;;;;18.56;100.00;101458.44;5187579;28;20387;-70
2023/07/17 00:03:26;;;;;;;5.88;2.92;;;;;;;18.59;100.00;101464.25;5189760;28;20099;-70
2023/07/17 00:05:57;;;;;;;4.80;2.95;;;;;;;18.58;100.00;101449.34;5187505;28;20026;-70
2023/07/17 00:08:29;;;;;;;4.40;2.80;;;;;;;18.58;100.00;101459.94;5186598;28;20034;-70
2023/07/17 00:11:00;;;;;;;5.18;2.78;;;;;;;18.61;100.00;101456.97;5188264;28;20538;-70
2023/07/17 00:13:31;;;;;;;7.90;3.13;;;;;;;18.58;100.00;101461.78;5187528;28;20375;-70
2023/07/17 00:16:02;;;;;;;5.22;2.75;;;;;;;18.42;100.00;101454.66;5190550;28;20369;-70
2023/07/17 00:18:34;;;;;;;6.15;2.85;;;;;;;18.46;100.00;101451.50;5188082;28;20038;-70
2023/07/17 00:21:06;;;;;;;5.20;2.53;;;;;;;18.44;100.00;101461.44;5187377;28;20105;-70
2023/07/17 00:23:37;;;;;;;5.07;2.80;;;;;;;18.48;100.00;101459.28;5189488;28;20048;-70
2023/07/17 00:26:08;;;;;;;6.40;3.17;;;;;;;18.39;100.00;101458.47;5190411;28;20045;-70
2023/07/17 00:28:39;;;;;;;5.72;3.00;;;;;;;18.37;100.00;101449.88;5189323;28;20065;-70
2023/07/17 00:31:11;;;;;;;6.15;3.20;;;;;;;18.31;100.00;101466.44;5185744;28;20093;-70
2023/07/17 00:33:42;;;;;;;5.20;3.27;;;;;;;18.28;100.00;101452.66;5189388;28;20042;-70
2023/07/17 00:36:13;;;;;;;4.65;2.75;;;;;;;18.21;100.00;101458.63;5188922;28;20162;-70
2023/07/17 00:38:44;;;;;;;7.35;2.90;;;;;;;18.22;100.00;101468.25;5186552;28;21447;-70
2023/07/17 00:41:16;;;;;;;5.40;2.72;;;;;;;18.09;100.00;101462.59;5187594;28;20452;-70
2023/07/17 00:43:47;;;;;;;4.88;2.85;;;;;;;18.06;100.00;101465.56;5189299;28;20514;-70
2023/07/17 00:46:18;;;;;;;5.25;3.17;;;;;;;18.10;100.00;101466.91;5188165;28;20403;-70
2023/07/17 00:48:50;;;;;;;4.38;2.60;;;;;;;18.08;100.00;101473.38;5187163;28;20396;-70
2023/07/17 00:51:21;;;;;;;8.52;3.20;;;;;;;18.02;100.00;101480.16;5185329;28;20026;-70
2023/07/17 00:53:54;;;;;;;5.13;2.63;;;;;;;17.91;100.00;101480.47;5188324;28;20547;-70
2023/07/17 00:56:27;;;;;;;4.57;2.50;;;;;;;17.88;100.00;101486.94;5184288;28;20029;-70
2023/07/17 00:58:59;;;;;;;;;;;;;;;18.62;100.00;101474.53;5190280;28;20137;-70
2023/07/17 01:01:31;;;;;;;5.10;2.67;;;;;;;17.86;100.00;101482.78;5187382;28;19979;-70
2023/07/17 01:04:05;;;;;;;6.47;3.13;;;;;;;17.90;100.00;101476.16;5188307;28;20301;-70
2023/07/17 01:06:38;;;;;;;7.85;2.85;;;;;;;17.77;100.00;101476.63;5187349;28;20049;-70
2023/07/17 01:09:11;;;;;;;7.35;2.80;;;;;;;17.79;100.00;101484.41;5189565;28;20030;-70
2023/07/17 01:11:43;;;;;;;7.25;3.50;;;;;;;17.74;100.00;101474.28;5185513;28;20041;-70
2023/07/17 01:14:16;;;;;;;6.05;3.00;;;;;;;17.69;100.00;101481.84;5187528;28;21344;-70
2023/07/17 01:16:48;;;;;;;6.72;2.75;;;;;;;17.61;100.00;101477.38;5189560;28;20097;-70
2023/07/17 01:19:20;;;;;;;6.20;3.05;;;;;;;17.71;100.00;101480.72;5187592;28;20034;-70
2023/07/17 01:22:10;;;;;;;6.22;2.70;;;;;;;17.96;100.00;101488.78;5186258;28;20048;-70
2023/07/17 01:24:41;;;;;;;6.70;3.05;;;;;;;17.65;100.00;101491.13;5188380;28;20038;-70
2023/07/17 01:27:13;;;;;;;6.57;2.92;;;;;;;17.61;100.00;101493.25;5187696;28;20101;-70
2023/07/17 01:29:44;;;;;;;5.43;2.95;;;;;;;17.57;100.00;101486.63;5186781;28;20051;-70
2023/07/17 01:32:19;;;;;;;5.72;3.05;;;;;;;17.56;100.00;101498.22;5185075;28;21325;-70
2023/07/17 01:34:51;;;;;;;7.63;2.78;;;;;;;17.54;100.00;101497.56;5185539;28;20034;-70
2023/07/17 01:37:22;;;;;;;6.05;2.72;;;;;;;17.55;100.00;101498.41;5188345;28;20037;-70
2023/07/17 01:39:53;;;;;;;6.22;3.05;;;;;;;17.45;100.00;101493.22;5185739;28;20491;-70
2023/07/17 01:42:25;;;;;;;4.68;2.72;;;;;;;17.38;100.00;101489.53;5186010;28;20038;-70
2023/07/17 01:44:56;;;;;;;7.95;3.33;;;;;;;17.41;100.00;101497.16;5187681;28;20533;-70
2023/07/17 01:47:27;;;;;;;6.72;3.08;;;;;;;17.39;100.00;101485.91;5188258;28;20031;-70
2023/07/17 01:49:59;;;;;;;6.93;3.33;;;;;;;17.39;100.00;101489.41;5186200;28;20826;-70
2023/07/17 01:52:30;;;;;;;6.32;3.00;;;;;;;17.39;100.00;101492.03;5182898;28;20023;-70
2023/07/17 01:55:01;;;;;;;4.05;2.88;;;;;;;17.29;100.00;101487.84;5184480;28;20030;-70
2023/07/17 01:57:32;;;;;;;6.28;3.28;;;;;;;17.35;100.00;101495.13;5186152;28;20030;-70
2023/07/17 02:00:04;;;;;;;5.30;2.72;;;;;;;17.33;100.00;101489.19;5189086;28;20066;-70
2023/07/17 02:02:36;;;;;;;7.72;3.35;;;;;;;17.25;100.00;101493.47;5186589;28;20040;-70
2023/07/17 02:05:07;;;;;;;7.93;3.10;;;;;;;17.25;100.00;101485.50;5186814;28;20026;-70
2023/07/17 02:07:39;;;;;;;7.80;3.38;;;;;;;17.18;100.00;101481.00;5182481;28;20029;-70
2023/07/17 02:10:10;;;;;;;6.03;2.70;;;;;;;17.19;100.00;101482.66;5185770;28;20026;-70
2023/07/17 02:12:41;;;;;;;5.83;3.07;;;;;;;17.17;100.00;101480.19;5185681;28;20030;-70
2023/07/17 02:15:13;;;;;;;5.82;3.05;;;;;;;17.03;100.00;101486.06;5185637;28;20293;-70
2023/07/17 02:17:44;;;;;;;5.28;2.97;;;;;;;17.08;100.00;101493.50;5187653;28;20045;-70
2023/07/17 02:20:15;;;;;;;5.78;2.90;;;;;;;17.02;100.00;101495.81;5188072;28;20030;-70
2023/07/17 02:22:47;;;;;;;5.97;2.95;;;;;;;16.93;100.00;101488.81;5185394;28;20053;-70
2023/07/17 02:25:18;;;;;;;9.45;3.38;;;;;;;17.01;100.00;101501.28;5183413;28;20022;-70
2023/07/17 02:27:49;;;;;;;7.03;2.80;;;;;;;17.00;100.00;101502.25;5186768;28;20080;-70
2023/07/17 02:30:21;;;;;;;6.47;2.97;;;;;;;16.96;100.00;101499.06;5186571;28;20034;-70
2023/07/17 02:32:52;;;;;;;7.32;3.03;;;;;;;17.00;100.00;101499.59;5185495;28;20467;-70
2023/07/17 02:35:23;;;;;;;6.53;2.88;;;;;;;16.92;100.00;101505.66;5185022;28;20129;-70
2023/07/17 02:37:54;;;;;;;6.20;2.80;;;;;;;16.98;100.00;101506.88;5187956;28;20038;-70
2023/07/17 02:40:26;;;;;;;5.35;2.70;;;;;;;16.85;100.00;101501.16;5187210;28;20026;-70
2023/07/17 02:42:57;;;;;;;8.67;3.00;;;;;;;16.85;100.00;101509.91;5185064;28;20174;-70
2023/07/17 02:45:28;;;;;;;5.53;2.97;;;;;;;16.83;100.00;101503.97;5186067;28;20295;-70
2023/07/17 02:47:59;;;;;;;5.20;2.50;;;;;;;16.81;100.00;101508.56;5186304;28;20030;-70
2023/07/17 02:50:31;;;;;;;8.80;2.90;;;;;;;16.75;100.00;101512.66;5185708;28;20407;-70
2023/07/17 02:53:02;;;;;;;5.95;2.92;;;;;;;16.70;100.00;101517.53;5184999;28;20027;-70
2023/07/17 02:55:33;;;;;;;7.82;3.50;;;;;;;16.71;100.00;101516.59;5187633;28;20083;-70
2023/07/17 02:58:04;;;;;;;4.40;2.67;;;;;;;16.65;100.00;101514.53;5186067;28;20026;-70
2023/07/17 03:00:36;;;;;;;7.32;3.13;;;;;;;16.64;100.00;101515.53;5184174;28;20031;-70
2023/07/17 03:03:07;;;;;;;5.22;2.58;;;;;;;16.70;100.00;101525.47;5200494;28;20105;-70
2023/07/17 03:05:39;;;;;;;7.32;3.22;;;;;;;16.65;100.00;101532.22;5207725;28;20037;-70
2023/07/17 03:08:10;;;;;;;6.07;2.58;;;;;;;16.67;100.00;101522.34;5204303;28;20030;-70
2023/07/17 03:10:41;;;;;;;4.78;2.85;;;;;;;16.63;100.00;101535.03;5205281;28;20034;-70
2023/07/17 03:13:13;;;;;;;7.75;3.28;;;;;;;16.69;100.00;101533.59;5207642;28;20026;-70
2023/07/17 03:15:44;;;;;;;7.00;3.22;;;;;;;16.70;100.00;101541.34;5211153;28;20439;-70
2023/07/17 03:18:15;;;;;;;6.05;2.65;;;;;;;16.61;100.00;101539.63;5211098;28;20105;-70
2023/07/17 03:20:47;;;;;;;6.47;2.67;;;;;;;16.54;100.00;101536.75;5210997;28;20026;-70
2023/07/17 03:23:18;;;;;;;7.00;3.10;;;;;;;16.54;100.00;101535.94;5208159;28;20153;-69
2023/07/17 03:25:49;;;;;;;6.43;2.78;;;;;;;16.50;100.00;101540.69;5210728;28;20315;-69
2023/07/17 03:28:20;;;;;;;7.18;3.05;;;;;;;16.48;100.00;101536.56;5210624;28;20091;-69
2023/07/17 03:30:51;;;;;;;7.68;3.00;;;;;;;16.44;100.00;101533.38;5211454;28;20124;-69
2023/07/17 03:33:23;;;;;;;7.80;3.28;;;;;;;16.42;100.00;101539.81;5206871;28;20036;-69
2023/07/17 03:35:54;;;;;;;6.18;2.95;;;;;;;16.42;100.00;101540.63;5210778;28;20083;-69
2023/07/17 03:38:25;;;;;;;7.13;2.95;;;;;;;16.42;100.00;101547.75;5211375;28;20032;-69
2023/07/17 03:40:57;;;;;;;6.70;3.00;;;;;;;16.38;100.00;101541.91;5209528;28;20026;-69
2023/07/17 03:43:28;;;;;;;14.00;2.88;;;;;;;16.32;100.00;101542.50;5210512;28;20056;-69
2023/07/17 03:45:59;;;;;;;6.85;3.20;;;;;;;16.34;100.00;101548.50;5208594;28;20049;-69
2023/07/17 03:48:30;;;;;;;5.93;3.03;;;;;;;16.33;100.00;101541.56;5211769;28;20022;-69
2023/07/17 03:51:02;;;;;;;6.15;2.47;;;;;;;16.35;100.00;101542.22;5208264;28;20025;-68
2023/07/17 03:53:34;;;;;;;7.20;3.05;;;;;;;16.36;100.00;101540.41;5208831;28;20029;-69
2023/07/17 03:56:05;;;;;;;6.60;3.17;;;;;;;16.30;100.00;101542.66;5208519;28;20026;-69
2023/07/17 03:58:36;;;;;;;5.45;2.67;;;;;;;16.32;100.00;101547.78;5190496;28;20018;-69
2023/07/17 04:01:08;;;;;;;6.85;3.30;;;;;;;16.29;100.00;101548.94;5209805;28;20103;-69
2023/07/17 04:03:39;;;;;;;7.55;3.20;;;;;;;16.28;100.00;101549.91;5208650;28;20120;-69
2023/07/17 04:06:10;;;;;;;8.52;3.35;;;;;;;16.25;100.00;101552.88;5210572;28;20037;-69
2023/07/17 04:08:41;;;;;;;6.53;3.05;;;;;;;16.26;100.00;101556.34;5208627;28;20105;-69
2023/07/17 04:11:14;;;;;;;7.85;3.67;;;;;;;16.22;100.00;101558.47;5209531;28;20119;-68
2023/07/17 04:13:45;;;;;;;6.47;3.05;;;;;;;16.24;100.00;101563.59;5191641;28;20030;-69
2023/07/17 04:16:19;;;;;;;7.82;3.83;;;;;;;16.25;100.00;101573.16;5209452;28;20029;-69
2023/07/17 04:18:50;;;;;;;9.52;3.70;;;;;;;16.19;100.00;101571.97;5209857;28;20040;-69
2023/07/17 04:21:22;;;;;;;6.97;3.08;;;;;;;16.20;100.00;101567.50;5209406;28;20030;-69
2023/07/17 04:23:53;;;;;;;6.63;3.38;;;;;;;16.21;100.00;101574.44;5205485;28;20038;-69
2023/07/17 04:26:24;;;;;;;6.88;3.90;;;;;;;16.21;100.00;101569.16;5209138;28;20022;-69
2023/07/17 04:28:56;;;;;;;10.43;3.72;;;;;;;16.22;100.00;101578.78;5210322;28;20459;-69
2023/07/17 04:31:27;;;;;;;8.45;3.90;;;;;;;16.16;100.00;101571.44;5209271;28;20580;-69
2023/07/17 04:33:58;;;;;;;7.95;3.70;;;;;;;16.16;100.00;101580.19;5204739;28;20022;-68
2023/07/17 04:36:29;;;;;;;7.80;4.13;;;;;;;16.22;100.00;101582.25;5209376;28;20026;-68
2023/07/17 04:39:04;;;;;;;9.82;3.92;;;;;;;16.21;100.00;101580.59;5210648;28;20285;-68
2023/07/17 04:41:35;;;;;;;10.18;3.92;;;;;;;16.21;100.00;101585.03;5207088;28;20026;-68
2023/07/17 04:44:07;;;;;;;5.40;3.45;;;;;;;16.21;100.00;101591.19;5209366;28;20034;-68
2023/07/17 04:46:38;;;;;;;7.70;3.42;;;;;;;16.22;100.00;101586.72;5209641;28;20109;-68
2023/07/17 04:49:09;;;;;;;10.27;4.30;;;;;;;16.32;100.00;101590.09;5208753;28;20040;-68
2023/07/17 04:51:40;;;;;;;6.43;3.42;;;;;;;16.28;100.00;101596.69;5207308;28;21438;-68
2023/07/17 04:54:12;;;;;;;6.90;3.90;;;;;;;16.29;100.00;101599.19;5206386;28;20022;-68
2023/07/17 04:56:43;;;;;;;9.88;4.00;;;;;;;16.29;100.00;101601.00;5209196;28;20732;-68
2023/07/17 04:59:16;;;;;;;7.97;3.90;;;;;;;16.35;100.00;101603.03;5191495;28;20026;-68
2023/07/17 05:01:47;;;;;;;9.07;4.05;;;;;;;16.35;100.00;101592.47;5208515;28;20026;-68
2023/07/17 05:04:19;;;;;;;9.25;4.03;;;;;;;16.40;100.00;101600.78;5206664;28;20470;-68
2023/07/17 05:06:50;;;;;;;9.27;4.30;;;;;;;16.43;100.00;101607.56;5189574;28;20140;-68
2023/07/17 05:09:21;;;;;;;8.88;4.60;;;;;;;16.49;100.00;101612.28;5210072;28;20065;-68
2023/07/17 05:11:54;;;;;;;10.60;4.78;;;;;;;16.50;100.00;101620.06;5208748;28;20022;-68
2023/07/17 05:14:25;;;;;;;9.85;4.43;;;;;;;16.58;100.00;101614.00;5208042;28;20510;-68
2023/07/17 05:16:56;;;;;;;9.60;5.00;;;;;;;16.61;100.00;101607.59;5205422;28;20026;-68
2023/07/17 05:19:28;;;;;;;8.82;4.65;;;;;;;16.64;100.00;101610.78;5209751;28;20557;-69
2023/07/17 05:22:00;;;;;;;8.10;4.47;;;;;;;16.66;100.00;101610.59;5206578;28;20033;-68
2023/07/17 05:24:32;;;;;;;6.93;3.80;;;;;;;16.74;100.00;101616.88;5236448;23;20088;-69
2023/07/17 05:27:04;;;;;;;7.22;4.15;;;;;;;16.75;100.00;101615.03;5232131;28;20551;-68
2023/07/17 05:29:36;;;;;;;11.38;4.15;;;;;;;16.82;100.00;101615.25;5237566;28;20036;-69
2023/07/17 05:32:07;;;;;;;7.25;3.40;;;;;;;16.81;100.00;101618.88;5232036;28;20029;-69
2023/07/17 05:34:39;;;;;;;9.55;4.35;;;;;;;16.87;100.00;101618.28;5239315;28;20025;-69
2023/07/17 05:37:11;;;;;;;8.95;4.40;;;;;;;16.91;100.00;101622.28;5236868;28;20371;-68
2023/07/17 05:39:42;;;;;;;10.10;4.80;;;;;;;16.94;100.00;101619.34;5239241;28;20436;-68
2023/07/17 05:42:13;;;;;;;9.75;4.65;;;;;;;16.98;100.00;101626.81;5235847;28;20494;-68
2023/07/17 05:44:45;;;;;;;11.07;4.45;;;;;;;17.05;100.00;101634.13;5238683;28;20489;-69
2023/07/17 05:47:16;;;;;;;9.52;4.75;;;;;;;17.03;100.00;101634.31;5236773;28;20087;-70
2023/07/17 05:49:47;;;;;;;6.70;3.63;;;;;;;17.13;100.00;101635.06;5239611;28;20036;-69
2023/07/17 05:52:19;;;;;;;9.35;4.10;;;;;;;17.21;100.00;101637.75;5239945;28;20429;-67
2023/07/17 05:54:50;;;;;;;6.85;3.95;;;;;;;17.25;100.00;101644.41;5239324;28;20024;-69
2023/07/17 05:57:21;;;;;;;7.70;4.20;;;;;;;17.30;100.00;101645.75;5221160;28;20052;-69
2023/07/17 05:59:53;;;;;;;10.57;4.50;;;;;;;17.33;100.00;101634.84;5234650;28;20029;-70
2023/07/17 06:02:24;;;;;;;7.63;4.28;;;;;;;17.42;100.00;101645.34;5221438;28;20135;-69
2023/07/17 06:04:55;;;;;;;8.05;4.40;;;;;;;17.37;100.00;101641.50;5240370;28;20037;-68
2023/07/17 06:07:28;;;;;;;8.52;4.30;;;;;;;17.49;100.00;101643.72;5234884;28;20136;-70
2023/07/17 06:10:00;;;;;;;;;;;;;;;18.15;100.00;101644.13;5240640;28;20527;-69
2023/07/17 06:12:31;;;;;;;11.57;4.43;;;;;;;17.55;100.00;101644.13;5244079;28;19908;-69
2023/07/17 06:15:03;;;;;;;11.68;5.00;;;;;;;17.62;100.00;101653.94;5230906;28;20354;-69
2023/07/17 06:17:35;;;;;;;11.80;5.45;;;;;;;17.68;100.00;101661.25;5238426;28;20025;-69
2023/07/17 06:20:10;;;;;;;8.85;4.63;;;;;;;17.76;100.00;101657.84;5243921;28;20043;-69
2023/07/17 06:22:41;;;;;;;12.38;5.47;;;;;;;17.72;100.00;101667.06;5238011;28;20033;-68
2023/07/17 06:25:13;;;;;;;10.85;4.75;;;;;;;17.78;100.00;101655.88;5222439;28;20388;-69
2023/07/17 06:27:44;;;;;;;11.95;4.78;;;;;;;17.94;100.00;101660.41;5240978;28;20124;-69
2023/07/17 06:30:15;;;;;;;10.52;5.75;;;;;;;18.01;100.00;101665.94;5220447;28;20040;-69
2023/07/17 06:32:46;;;;;;;9.85;5.00;;;;;;;18.07;100.00;101660.84;5239312;28;20029;-69
2023/07/17 06:35:18;;;;;;;10.95;5.15;;;;;;;18.15;100.00;101668.00;5238828;28;20033;-69
2023/07/17 06:37:49;;;;;;;8.65;5.07;;;;;;;18.23;100.00;101673.31;5238199;28;20117;-69
2023/07/17 06:40:21;;;;;;;9.40;4.60;;;;;;;18.33;100.00;101681.13;5240458;28;20114;-67
2023/07/17 06:42:52;;;;;;;10.65;4.97;;;;;;;18.42;100.00;101669.56;5221704;28;20292;-69
2023/07/17 06:45:24;;;;;;;10.27;5.15;;;;;;;18.54;100.00;101678.88;5239385;28;20099;-69
2023/07/17 06:47:55;;;;;;;10.35;4.70;;;;;;;18.67;100.00;101681.06;5237283;28;20440;-67
2023/07/17 06:50:26;;;;;;;7.80;4.22;;;;;;;18.71;100.00;101677.13;5241815;28;20232;-70
2023/07/17 06:52:58;;;;;;;14.57;4.88;;;;;;;18.78;100.00;101701.19;5241334;28;20034;-69
2023/07/17 06:55:29;;;;;;;8.68;4.03;;;;;;;18.90;100.00;101698.09;5245150;28;20017;-69
2023/07/17 06:58:00;;;;;;;8.68;4.90;;;;;;;18.98;100.00;101691.94;5247075;28;20033;-69
2023/07/17 07:00:32;;;;;;;9.90;4.40;;;;;;;19.05;100.00;101697.41;5241335;28;20025;-69
2023/07/17 07:03:03;;;;;;;10.43;4.93;;;;;;;19.16;100.00;101689.13;5242959;28;20059;-69
2023/07/17 07:05:34;;;;;;;11.07;4.73;;;;;;;19.25;100.00;101693.44;5242392;28;20071;-68
2023/07/17 07:08:05;;;;;;;10.25;5.07;;;;;;;19.43;100.00;101701.22;5240949;28;20116;-68
2023/07/17 07:10:37;;;;;;;8.13;4.70;;;;;;;19.45;100.00;101707.22;5242012;28;20421;-69
2023/07/17 07:13:08;;;;;;;8.17;4.20;;;;;;;19.54;100.00;101711.50;5244531;28;20041;-69
2023/07/17 07:15:40;;;;;;;6.80;4.10;;;;;;;19.64;100.00;101717.53;5240126;28;20025;-68
2023/07/17 07:18:11;;;;;;;8.93;4.40;;;;;;;19.68;100.00;101715.38;5243124;28;20021;-70
2023/07/17 07:20:43;;;;;;;6.68;4.03;;;;;;;19.82;100.00;101703.22;5239691;28;20145;-69
2023/07/17 07:23:15;;;;;;;9.35;4.03;;;;;;;20.04;100.00;101709.63;5244275;28;20037;-70
2023/07/17 07:25:47;;;;;;;12.10;4.87;;;;;;;20.12;100.00;101712.28;5241761;28;20200;-70
2023/07/17 07:28:19;;;;;;;9.50;4.43;;;;;;;20.07;100.00;101726.06;5240331;28;20029;-70
2023/07/17 07:30:57;;;;;;;6.60;4.03;;;;;;;19.98;100.00;101718.28;5242142;28;20478;-69
2023/07/17 07:33:29;;;;;;;10.15;4.07;;;;;;;19.84;100.00;101727.78;5239949;28;20108;-70
2023/07/17 07:36:00;;;;;;;9.63;4.33;;;;;;;19.86;100.00;101734.63;5239381;28;20142;-70
2023/07/17 07:38:31;;;;;;;9.67;3.93;;;;;;;20.06;100.00;101726.25;5225343;28;20104;-70
2023/07/17 07:41:06;;;;;;;10.13;4.30;;;;;;;20.28;100.00;101730.84;5240865;28;20048;-70
2023/07/17 07:43:37;;;;;;;7.13;3.80;;;;;;;20.35;99.31;101730.97;5241002;28;20039;-70
2023/07/17 07:46:09;;;;;;;7.47;3.78;;;;;;;20.23;97.99;101737.66;5244254;28;20032;-70
2023/07/17 07:48:40;;;;;;;8.38;4.40;;;;;;;20.40;95.19;101749.91;5226806;28;20033;-69
2023/07/17 07:51:11;;;;;;;14.30;4.60;;;;;;;20.45;94.03;101750.22;5225612;28;20040;-68
2023/07/17 07:53:42;;;;;;;12.17;4.50;;;;;;;20.63;92.83;101750.00;5241990;28;20095;-70
2023/07/17 07:56:14;;;;;;;10.00;4.17;;;;;;;20.67;90.62;101747.81;5242632;28;20049;-69
2023/07/17 07:58:45;;;;;;;9.20;3.97;;;;;;;20.67;89.49;101740.66;5241168;28;20036;-70
2023/07/17 08:01:17;;;;;;;12.80;5.10;;;;;;;20.52;88.82;101748.53;5224010;28;20386;-70
2023/07/17 08:03:48;;;;;;;9.60;4.30;;;;;;;20.78;88.67;101750.09;5243192;28;20017;-70
2023/07/17 08:06:19;;;;;;;9.43;4.60;;;;;;;20.87;86.33;101744.56;5243983;28;20108;-70
2023/07/17 08:08:50;;;;;;;6.40;3.77;;;;;;;21.11;86.16;101748.06;5242333;28;20036;-70
2023/07/17 08:11:22;;;;;;;8.50;3.70;;;;;;;21.34;87.71;101754.25;5243910;28;20032;-70
2023/07/17 08:13:53;;;;;;;8.60;4.33;;;;;;;21.25;83.65;101744.63;5244703;28;20036;-70
2023/07/17 08:16:24;;;;;;;6.93;3.77;;;;;;;21.26;80.12;101759.59;5241703;28;20086;-70
2023/07/17 08:18:56;;;;;;;6.83;3.67;;;;;;;21.20;81.02;101765.63;5241702;28;20033;-69
2023/07/17 08:21:27;;;;;;;8.77;4.57;;;;;;;21.13;81.42;101752.19;5241879;28;20029;-69
2023/07/17 08:23:58;;;;;;;11.13;4.57;;;;;;;21.08;80.82;101757.22;5241344;28;20089;-69
2023/07/17 08:26:29;;;;;;;8.37;4.10;;;;;;;21.26;79.70;101759.59;5244697;28;20537;-68
2023/07/17 08:29:02;;;;;;;6.30;3.73;;;;;;;21.29;80.28;101759.25;5241390;28;20035;-69
2023/07/17 08:31:34;;;;;;;;;;;;;;;22.02;78.97;101756.94;5242007;28;20116;-69
2023/07/17 08:34:06;;;;;;;11.55;4.50;;;;;;;21.29;77.19;101769.06;5244366;28;19913;-69
2023/07/17 08:36:37;;;;;;;7.60;4.13;;;;;;;21.25;78.83;101762.44;5228619;28;20048;-68
2023/07/17 08:39:09;;;;;;;7.07;4.43;;;;;;;21.01;75.45;101761.59;5244762;28;20403;-69
2023/07/17 08:41:44;;;;;;;7.80;3.90;;;;;;;21.34;76.69;101766.75;5241344;28;20021;-71
2023/07/17 08:44:19;;;;;;;7.07;3.75;;;;;;;21.44;75.89;101769.16;5244732;28;20078;-69
2023/07/17 08:46:51;;;;;;;9.63;3.92;;;;;;;21.56;76.00;101765.88;5239287;28;20449;-69
2023/07/17 08:49:25;;;;;;;7.15;4.10;;;;;;;21.84;72.58;101751.97;5243511;28;20403;-70
2023/07/17 08:51:59;;;;;;;9.80;3.85;;;;;;;22.15;69.56;101773.16;5241514;28;20029;-69
2023/07/17 08:54:30;;;;;;;7.68;3.67;;;;;;;22.19;67.87;101763.78;5242968;28;20487;-70
2023/07/17 08:57:03;;;;;;;7.70;3.67;;;;;;;22.46;66.92;101759.59;5240931;28;20045;-69
2023/07/17 08:59:36;;;;;;;8.50;3.70;;;;;;;22.34;66.77;101753.91;5222505;28;20029;-69
2023/07/17 09:02:07;;;;;;;;;;;;;;;23.21;66.00;101758.41;5240971;28;20039;-70
2023/07/17 09:04:38;;;;;;;9.00;3.73;;;;;;;22.55;67.25;101752.34;5241249;28;19916;-70
2023/07/17 09:07:10;;;;;;;7.90;3.97;;;;;;;22.54;66.20;101756.88;5222743;28;20026;-69
2023/07/17 09:09:41;;;;;;;7.90;3.73;;;;;;;22.55;66.90;101758.50;5239350;28;20029;-70
2023/07/17 09:12:16;;;;;;;5.67;3.40;;;;;;;22.69;65.19;101755.97;5239216;28;20379;-69
2023/07/17 09:14:48;;;;;;;6.65;3.60;;;;;;;22.75;62.14;101760.59;5242331;28;20045;-68
2023/07/17 09:17:19;;;;;;;6.95;3.40;;;;;;;22.77;59.39;101766.59;5238214;28;20131;-70
2023/07/17 09:19:51;;;;;;;7.37;2.97;;;;;;;22.65;61.23;101765.38;5241612;28;20063;-69
2023/07/17 09:22:22;;;;;;;7.03;3.20;;;;;;;22.63;61.32;101762.09;5240121;28;20485;-69
2023/07/17 09:24:53;;;;;;;7.70;3.23;;;;;;;22.77;62.67;101763.91;5246015;28;20474;-70
2023/07/17 09:27:25;;;;;;;8.70;3.37;;;;;;;22.58;59.55;101766.16;5241540;28;20102;-69
2023/07/17 09:29:56;;;;;;;4.87;2.77;;;;;;;22.62;58.22;101766.59;5240555;28;20029;-71
2023/07/17 09:32:27;;;;;;;6.07;2.90;;;;;;;22.92;58.19;101769.22;5238174;28;20028;-70
2023/07/17 09:35:04;;;;;;;5.23;2.83;;;;;;;23.09;57.60;101770.66;5223956;28;20025;-70
2023/07/17 09:37:35;;;;;;;6.85;3.22;;;;;;;22.99;59.14;101772.78;5218630;28;20545;-69
2023/07/17 09:40:07;;;;;;;7.70;2.90;;;;;;;23.10;57.16;101771.47;5241046;28;20037;-71
2023/07/17 09:42:41;;;;;;;5.22;2.60;;;;;;;23.23;53.71;101774.28;5237825;28;20036;-69
2023/07/17 09:45:14;;;;;;;5.07;2.90;;;;;;;23.56;54.07;101779.91;5244335;28;20027;-70
2023/07/17 09:47:51;;;;;;;8.95;3.05;;;;;;;23.82;53.17;101762.44;5236533;28;20878;-71
2023/07/17 09:50:26;;;;;;;8.00;3.30;;;;;;;24.12;53.10;101774.56;5237488;28;20021;-68
2023/07/17 09:52:59;;;;;;;4.70;2.40;;;;;;;23.87;48.98;101773.41;5242772;28;20036;-70
2023/07/17 09:55:31;;;;;;;5.45;2.40;;;;;;;24.08;50.54;101776.00;5238691;28;20482;-70
2023/07/17 09:58:04;;;;;;;5.15;2.63;;;;;;;23.85;49.49;101776.25;5224582;28;20036;-70
2023/07/17 10:00:39;;;;;;;7.22;3.42;;;;;;;23.72;50.71;101776.19;5241319;28;20060;-69
2023/07/17 10:03:13;;;;;;;7.18;3.13;;;;;;;23.57;51.16;101781.59;5239281;28;20478;-69
2023/07/17 10:05:46;;;;;;;6.70;2.75;;;;;;;24.00;52.96;101766.28;5238133;28;20509;-70
2023/07/17 10:08:18;;;;;;;7.57;3.30;;;;;;;23.89;49.97;101764.13;5241827;28;20025;-69
2023/07/17 10:10:49;;;;;;;6.57;2.67;;;;;;;23.73;48.65;101767.13;5239131;28;20052;-69
2023/07/17 10:13:21;;;;;;;6.37;2.93;;;;;;;23.80;49.76;101776.03;5240065;28;20033;-69
2023/07/17 10:15:52;;;;;;;6.63;2.63;;;;;;;23.98;48.09;101768.34;5237842;28;20022;-69
2023/07/17 10:18:24;;;;;;;6.73;2.60;;;;;;;24.22;49.78;101775.06;5234647;28;20060;-70
2023/07/17 10:20:56;;;;;;;4.83;2.60;;;;;;;24.22;47.73;101769.72;5239291;28;20021;-70
2023/07/17 10:23:29;;;;;;;6.17;2.83;;;;;;;24.22;47.62;101776.91;5217142;28;20106;-70
2023/07/17 10:26:08;;;;;;;6.07;2.97;;;;;;;24.43;47.94;101779.50;5241699;28;20398;-69
2023/07/17 10:28:41;;;;;;;6.65;3.15;;;;;;;23.98;47.14;101775.50;5240699;28;20105;-70
2023/07/17 10:31:20;;;;;;;7.28;3.42;;;;;;;24.07;49.24;101777.03;5239673;28;20021;-69
2023/07/17 10:34:02;;;;;;;4.95;2.83;;;;;;;23.79;49.84;101777.06;5241012;28;20119;-70
2023/07/17 10:36:41;;;;;;;7.20;3.28;;;;;;;23.67;50.61;101771.38;5240029;28;20025;-69
2023/07/17 10:39:18;;;;;;;6.32;3.33;;;;;;;23.84;52.01;101771.94;5223973;28;20079;-70
2023/07/17 10:41:50;;;;;;;6.13;3.28;;;;;;;24.12;47.55;101784.47;5238134;28;20583;-70
2023/07/17 10:44:22;;;;;;;6.28;3.45;;;;;;;24.49;46.53;101772.53;5239028;28;20083;-68
2023/07/17 10:46:53;;;;;;;5.25;3.05;;;;;;;24.88;45.75;101774.53;5238888;28;20478;-68
2023/07/17 10:49:24;;;;;;;5.23;3.50;;;;;;;24.85;45.12;101774.94;5239907;28;20079;-68
2023/07/17 10:51:56;;;;;;;7.70;3.40;;;;;;;25.07;48.19;101767.56;5238059;28;20444;-69
2023/07/17 10:54:27;;;;;;;7.57;3.40;;;;;;;25.07;46.91;101764.06;5220453;28;20026;-68
2023/07/17 10:56:58;;;;;;;6.63;3.07;;;;;;;25.35;45.78;101761.25;5237875;28;20028;-67
2023/07/17 10:59:30;;;;;;;4.63;3.00;;;;;;;25.41;45.30;101768.44;5239573;28;20485;-68
2023/07/17 11:02:02;;;;;;;4.77;2.70;;;;;;;25.31;43.35;101760.81;5239693;28;20069;-68
2023/07/17 11:04:34;;;;;;;;;;;;;;;25.96;41.52;101775.25;5219272;28;20112;-67
2023/07/17 11:07:07;;;;;;;4.17;2.47;;;;;;;25.22;43.60;101772.75;5236762;28;20383;-68
2023/07/17 11:09:42;;;;;;;5.97;3.35;;;;;;;25.23;42.02;101771.75;5237398;28;20033;-68
2023/07/17 11:12:14;;;;;;;5.22;3.08;;;;;;;25.15;42.94;101775.44;5239167;28;20658;-69
2023/07/17 11:14:52;;;;;;;4.23;2.60;;;;;;;25.17;42.86;101769.88;5220208;28;20049;-69
2023/07/17 11:17:23;;;;;;;6.65;3.15;;;;;;;24.87;43.26;101772.88;5237123;28;20286;-68
2023/07/17 11:20:03;;;;;;;5.47;3.30;;;;;;;24.97;42.12;101773.31;5243056;28;20029;-68
2023/07/17 11:22:36;;;;;;;4.93;3.35;;;;;;;24.84;43.48;101784.00;5240457;28;20525;-68
2023/07/17 11:25:10;;;;;;;4.85;3.13;;;;;;;25.38;45.14;101769.72;5243419;22;20139;-75
2023/07/17 11:27:42;;;;;;;6.20;3.10;;;;;;;25.22;44.06;101768.22;5240713;28;20051;-77
2023/07/17 11:30:28;;;;;;;7.93;4.13;;;;;;;25.52;44.28;101770.50;5240142;28;20029;-74
2023/07/17 11:33:05;;;;;;;4.28;3.28;;;;;;;25.02;44.80;101790.66;5232205;28;20026;-76
2023/07/17 11:35:47;;;;;;;4.93;3.35;;;;;;;24.82;45.32;101775.34;5256021;28;20069;-75
2023/07/17 11:38:20;;;;;;;5.43;3.75;;;;;;;24.79;47.44;101775.75;5240895;28;20446;-76
2023/07/17 11:40:51;;;;;;;6.15;3.63;;;;;;;24.50;46.83;101771.50;5239989;28;20106;-76